sensor_id;sensor_type;location;lat;lon;timestamp;pressure;altitude;pressure_sealevel;temperature;humidity
32933;BME280;19444;50.518;10.870;2023-05-09T00:02:27;96971.94;;;9.72;100.00
32933;BME280;19444;50.518;10.870;2023-05-09T00:05:25;96968.88;;;9.78;100.00
32933;BME280;19444;50.518;10.870;2023-05-09T00:08:22;96962.69;;;9.64;100.00
32933;BME280;19444;50.518;10.870;2023-05-09T00:11:19;96966.91;;;10.03;100.00
32933;BME280;19444;50.518;10.870;2023-05-09T00:14:17;96964.75;;;9.86;100.00
32933;BME280;19444;50.518;10.870;2023-05-09T00:17:14;96968.75;;;9.88;100.00
32933;BME280;19444;50.518;10.870;2023-05-09T00:20:11;96971.00;;;9.81;100.00
32933;BME280;19444;50.518;10.870;2023-05-09T00:23:08;96970.19;;;9.81;100.00
32933;BME280;19444;50.518;10.870;2023-05-09T00:26:05;96968.88;;;9.97;100.00
32933;BME280;19444;50.518;10.870;2023-05-09T00:29:02;96970.78;;;9.59;100.00
32933;BME280;19444;50.518;10.870;2023-05-09T00:31:59;96968.81;;;9.83;100.00
32933;BME280;19444;50.518;10.870;2023-05-09T00:34:57;96964.41;;;9.74;100.00
32933;BME280;19444;50.518;10.870;2023-05-09T00:37:54;96959.56;;;9.57;100.00
32933;BME280;19444;50.518;10.870;2023-05-09T00:40:51;96959.53;;;9.19;100.00
32933;BME280;19444;50.518;10.870;2023-05-09T00:43:47;96955.75;;;9.44;100.00
32933;BME280;19444;50.518;10.870;2023-05-09T00:46:45;96941.44;;;9.54;100.00
32933;BME280;19444;50.518;10.870;2023-05-09T00:49:42;96945.38;;;9.37;100.00
32933;BME280;19444;50.518;10.870;2023-05-09T00:52:39;96939.59;;;9.30;100.00
32933;BME280;19444;50.518;10.870;2023-05-09T00:55:36;96934.03;;;9.27;100.00
32933;BME280;19444;50.518;10.870;2023-05-09T00:58:33;96925.22;;;9.26;100.00
32933;BME280;19444;50.518;10.870;2023-05-09T01:01:30;96919.38;;;9.24;100.00
32933;BME280;19444;50.518;10.870;2023-05-09T01:04:27;96919.59;;;9.28;100.00
32933;BME280;19444;50.518;10.870;2023-05-09T01:07:34;96921.38;;;9.13;100.00
32933;BME280;19444;50.518;10.870;2023-05-09T01:10:50;96918.09;;;8.98;100.00
32933;BME280;19444;50.518;10.870;2023-05-09T01:14:14;96909.66;;;9.09;100.00
32933;BME280;19444;50.518;10.870;2023-05-09T01:17:40;96918.16;;;8.93;100.00
32933;BME280;19444;50.518;10.870;2023-05-09T01:20:45;96911.97;;;8.97;100.00
32933;BME280;19444;50.518;10.870;2023-05-09T01:30:11;96915.03;;;8.86;100.00
32933;BME280;19444;50.518;10.870;2023-05-09T01:33:12;96913.31;;;8.95;100.00
32933;BME280;19444;50.518;10.870;2023-05-09T01:36:15;96913.06;;;8.72;100.00
32933;BME280;19444;50.518;10.870;2023-05-09T01:39:13;96907.88;;;8.81;100.00
32933;BME280;19444;50.518;10.870;2023-05-09T01:42:14;96902.41;;;8.91;100.00
32933;BME280;19444;50.518;10.870;2023-05-09T01:45:13;96901.47;;;8.82;100.00
32933;BME280;19444;50.518;10.870;2023-05-09T01:48:12;96902.72;;;8.66;100.00
32933;BME280;19444;50.518;10.870;2023-05-09T01:51:12;96903.25;;;8.87;100.00
32933;BME280;19444;50.518;10.870;2023-05-09T01:54:11;96900.03;;;8.90;100.00
32933;BME280;19444;50.518;10.870;2023-05-09T01:57:09;96900.19;;;8.98;100.00
32933;BME280;19444;50.518;10.870;2023-05-09T02:00:09;96904.44;;;8.99;100.00
32933;BME280;19444;50.518;10.870;2023-05-09T02:03:08;96900.88;;;8.85;100.00
32933;BME280;19444;50.518;10.870;2023-05-09T02:06:07;96890.66;;;8.68;100.00
32933;BME280;19444;50.518;10.870;2023-05-09T02:09:04;96886.84;;;8.74;100.00
32933;BME280;19444;50.518;10.870;2023-05-09T02:12:01;96891.34;;;8.79;100.00
32933;BME280;19444;50.518;10.870;2023-05-09T02:15:00;96889.22;;;8.76;100.00
32933;BME280;19444;50.518;10.870;2023-05-09T02:17:57;96891.09;;;8.75;100.00
32933;BME280;19444;50.518;10.870;2023-05-09T02:20:54;96888.28;;;8.67;100.00
32933;BME280;19444;50.518;10.870;2023-05-09T02:23:51;96876.50;;;8.68;100.00
32933;BME280;19444;50.518;10.870;2023-05-09T02:26:48;96879.13;;;8.49;100.00
32933;BME280;19444;50.518;10.870;2023-05-09T02:29:49;96881.69;;;8.59;100.00
32933;BME280;19444;50.518;10.870;2023-05-09T02:32:48;96889.59;;;8.45;100.00
32933;BME280;19444;50.518;10.870;2023-05-09T02:35:46;96885.38;;;8.39;100.00
32933;BME280;19444;50.518;10.870;2023-05-09T02:38:43;96891.81;;;8.62;100.00
32933;BME280;19444;50.518;10.870;2023-05-09T02:41:47;96885.66;;;8.38;100.00
32933;BME280;19444;50.518;10.870;2023-05-09T02:44:45;96873.75;;;8.54;100.00
32933;BME280;19444;50.518;10.870;2023-05-09T02:47:42;96879.13;;;8.73;100.00
32933;BME280;19444;50.518;10.870;2023-05-09T02:50:39;96874.06;;;8.47;100.00
32933;BME280;19444;50.518;10.870;2023-05-09T02:53:38;96876.94;;;8.27;100.00
32933;BME280;19444;50.518;10.870;2023-05-09T02:56:35;96879.06;;;8.78;100.00
32933;BME280;19444;50.518;10.870;2023-05-09T02:59:32;96867.69;;;8.67;100.00
32933;BME280;19444;50.518;10.870;2023-05-09T03:02:29;96871.53;;;8.61;100.00
32933;BME280;19444;50.518;10.870;2023-05-09T03:05:26;96870.84;;;8.50;100.00
32933;BME280;19444;50.518;10.870;2023-05-09T03:08:23;96876.94;;;8.75;100.00
32933;BME280;19444;50.518;10.870;2023-05-09T03:11:20;96875.00;;;8.62;100.00
32933;BME280;19444;50.518;10.870;2023-05-09T03:14:17;96875.19;;;8.65;100.00
32933;BME280;19444;50.518;10.870;2023-05-09T03:17:14;96873.03;;;8.67;100.00
32933;BME280;19444;50.518;10.870;2023-05-09T03:20:17;96868.81;;;8.42;100.00
32933;BME280;19444;50.518;10.870;2023-05-09T03:23:14;96873.84;;;8.44;100.00
32933;BME280;19444;50.518;10.870;2023-05-09T03:26:11;96867.84;;;8.28;100.00
32933;BME280;19444;50.518;10.870;2023-05-09T03:29:08;96864.88;;;8.30;100.00
32933;BME280;19444;50.518;10.870;2023-05-09T03:32:05;96866.22;;;8.32;100.00
32933;BME280;19444;50.518;10.870;2023-05-09T03:35:02;96862.72;;;8.37;100.00
32933;BME280;19444;50.518;10.870;2023-05-09T03:37:58;96856.34;;;8.57;100.00
32933;BME280;19444;50.518;10.870;2023-05-09T03:40:55;96854.41;;;8.62;100.00
32933;BME280;19444;50.518;10.870;2023-05-09T03:43:52;96849.41;;;8.55;100.00
32933;BME280;19444;50.518;10.870;2023-05-09T03:46:49;96850.44;;;8.60;100.00
32933;BME280;19444;50.518;10.870;2023-05-09T03:49:46;96843.47;;;8.59;100.00
32933;BME280;19444;50.518;10.870;2023-05-09T03:52:43;96841.34;;;8.61;100.00
32933;BME280;19444;50.518;10.870;2023-05-09T03:55:40;96847.78;;;8.60;100.00
32933;BME280;19444;50.518;10.870;2023-05-09T03:58:37;96856.00;;;8.63;100.00
32933;BME280;19444;50.518;10.870;2023-05-09T04:01:33;96855.31;;;8.52;100.00
32933;BME280;19444;50.518;10.870;2023-05-09T04:04:30;96850.78;;;8.53;100.00
32933;BME280;19444;50.518;10.870;2023-05-09T04:07:27;96867.34;;;8.50;100.00
32933;BME280;19444;50.518;10.870;2023-05-09T04:10:25;96853.81;;;8.65;100.00
32933;BME280;19444;50.518;10.870;2023-05-09T04:13:22;96854.69;;;8.61;100.00
32933;BME280;19444;50.518;10.870;2023-05-09T04:16:19;96861.75;;;8.94;100.00
32933;BME280;19444;50.518;10.870;2023-05-09T04:19:16;96853.81;;;8.65;100.00
32933;BME280;19444;50.518;10.870;2023-05-09T04:22:15;96855.28;;;8.76;100.00
32933;BME280;19444;50.518;10.870;2023-05-09T04:25:12;96854.00;;;8.74;100.00
32933;BME280;19444;50.518;10.870;2023-05-09T04:28:10;96851.13;;;9.08;100.00
32933;BME280;19444;50.518;10.870;2023-05-09T04:31:07;96849.13;;;9.00;100.00
32933;BME280;19444;50.518;10.870;2023-05-09T04:34:04;96853.50;;;8.91;100.00
32933;BME280;19444;50.518;10.870;2023-05-09T04:37:02;96843.03;;;8.94;100.00
32933;BME280;19444;50.518;10.870;2023-05-09T04:39:59;96844.59;;;8.76;100.00
32933;BME280;19444;50.518;10.870;2023-05-09T04:42:56;96850.53;;;8.92;100.00
32933;BME280;19444;50.518;10.870;2023-05-09T04:45:54;96846.00;;;9.11;100.00
32933;BME280;19444;50.518;10.870;2023-05-09T04:48:51;96845.44;;;9.33;100.00
32933;BME280;19444;50.518;10.870;2023-05-09T04:51:48;96846.59;;;9.79;100.00
32933;BME280;19444;50.518;10.870;2023-05-09T04:54:46;96841.94;;;10.44;100.00
32933;BME280;19444;50.518;10.870;2023-05-09T04:57:43;96839.06;;;10.54;100.00
32933;BME280;19444;50.518;10.870;2023-05-09T05:00:39;96848.13;;;9.98;100.00
32933;BME280;19444;50.518;10.870;2023-05-09T05:03:39;96844.09;;;9.82;100.00
32933;BME280;19444;50.518;10.870;2023-05-09T05:06:36;96844.63;;;9.98;100.00
32933;BME280;19444;50.518;10.870;2023-05-09T05:09:33;96837.50;;;10.07;100.00
32933;BME280;19444;50.518;10.870;2023-05-09T05:12:30;96835.53;;;10.13;100.00
32933;BME280;19444;50.518;10.870;2023-05-09T05:15:26;96829.72;;;10.24;100.00
32933;BME280;19444;50.518;10.870;2023-05-09T05:18:23;96828.94;;;10.38;100.00
32933;BME280;19444;50.518;10.870;2023-05-09T05:21:20;96835.22;;;10.14;100.00
32933;BME280;19444;50.518;10.870;2023-05-09T05:24:17;96822.72;;;10.10;100.00
32933;BME280;19444;50.518;10.870;2023-05-09T05:27:14;96822.81;;;9.58;100.00
32933;BME280;19444;50.518;10.870;2023-05-09T05:30:12;96813.00;;;10.14;100.00
32933;BME280;19444;50.518;10.870;2023-05-09T05:33:11;96821.97;;;10.50;100.00
32933;BME280;19444;50.518;10.870;2023-05-09T05:36:08;96812.06;;;10.37;100.00
32933;BME280;19444;50.518;10.870;2023-05-09T05:39:05;96811.44;;;10.68;100.00
32933;BME280;19444;50.518;10.870;2023-05-09T05:42:02;96809.75;;;10.72;100.00
32933;BME280;19444;50.518;10.870;2023-05-09T05:44:59;96810.94;;;10.66;100.00
32933;BME280;19444;50.518;10.870;2023-05-09T05:47:59;96805.31;;;11.03;100.00
32933;BME280;19444;50.518;10.870;2023-05-09T05:50:58;96804.06;;;10.87;100.00
32933;BME280;19444;50.518;10.870;2023-05-09T05:53:55;96792.97;;;11.83;100.00
32933;BME280;19444;50.518;10.870;2023-05-09T05:56:52;96786.94;;;11.55;100.00
32933;BME280;19444;50.518;10.870;2023-05-09T05:59:50;96782.81;;;11.58;100.00
32933;BME280;19444;50.518;10.870;2023-05-09T06:02:47;96788.03;;;12.08;100.00
32933;BME280;19444;50.518;10.870;2023-05-09T06:05:46;96780.88;;;12.03;100.00
32933;BME280;19444;50.518;10.870;2023-05-09T06:08:43;96773.34;;;12.14;100.00
32933;BME280;19444;50.518;10.870;2023-05-09T06:11:39;96776.66;;;12.11;100.00
32933;BME280;19444;50.518;10.870;2023-05-09T06:14:36;96768.56;;;12.59;100.00
32933;BME280;19444;50.518;10.870;2023-05-09T06:17:33;96776.97;;;12.58;100.00
32933;BME280;19444;50.518;10.870;2023-05-09T06:20:30;96769.97;;;12.48;100.00
32933;BME280;19444;50.518;10.870;2023-05-09T06:23:27;96762.41;;;12.67;100.00
32933;BME280;19444;50.518;10.870;2023-05-09T06:26:24;96761.19;;;13.25;100.00
32933;BME280;19444;50.518;10.870;2023-05-09T06:29:22;96766.28;;;13.35;92.50
32933;BME280;19444;50.518;10.870;2023-05-09T06:32:19;96757.97;;;13.66;100.00
32933;BME280;19444;50.518;10.870;2023-05-09T06:35:16;96762.47;;;13.54;100.00
32933;BME280;19444;50.518;10.870;2023-05-09T06:38:12;96766.22;;;13.53;79.33
32933;BME280;19444;50.518;10.870;2023-05-09T06:41:09;96761.59;;;13.71;92.42
32933;BME280;19444;50.518;10.870;2023-05-09T06:44:06;96759.22;;;13.78;86.53
32933;BME280;19444;50.518;10.870;2023-05-09T06:47:03;96760.56;;;14.01;99.60
32933;BME280;19444;50.518;10.870;2023-05-09T06:50:00;96766.09;;;14.05;91.25
32933;BME280;19444;50.518;10.870;2023-05-09T06:52:57;96755.63;;;14.12;89.36
32933;BME280;19444;50.518;10.870;2023-05-09T06:55:54;96754.34;;;14.18;94.42
32933;BME280;19444;50.518;10.870;2023-05-09T06:58:51;96753.75;;;14.04;88.95
32933;BME280;19444;50.518;10.870;2023-05-09T07:01:47;96758.88;;;14.64;82.74
32933;BME280;19444;50.518;10.870;2023-05-09T07:04:44;96741.34;;;14.70;76.47
32933;BME280;19444;50.518;10.870;2023-05-09T07:07:41;96736.97;;;14.87;83.75
32933;BME280;19444;50.518;10.870;2023-05-09T07:10:38;96737.41;;;14.38;83.03
32933;BME280;19444;50.518;10.870;2023-05-09T07:13:35;96734.91;;;14.63;89.32
32933;BME280;19444;50.518;10.870;2023-05-09T07:16:32;96737.28;;;14.64;73.88
32933;BME280;19444;50.518;10.870;2023-05-09T07:19:33;96744.88;;;14.92;71.47
32933;BME280;19444;50.518;10.870;2023-05-09T07:22:30;96731.22;;;14.88;71.23
32933;BME280;19444;50.518;10.870;2023-05-09T07:25:29;96729.47;;;14.92;79.76
32933;BME280;19444;50.518;10.870;2023-05-09T07:28:26;96725.75;;;15.51;68.40
32933;BME280;19444;50.518;10.870;2023-05-09T07:31:23;96722.19;;;15.26;71.77
32933;BME280;19444;50.518;10.870;2023-05-09T07:34:20;96726.44;;;15.48;79.45
32933;BME280;19444;50.518;10.870;2023-05-09T07:37:19;96702.38;;;15.55;66.74
32933;BME280;19444;50.518;10.870;2023-05-09T07:40:16;96707.28;;;15.41;66.90
32933;BME280;19444;50.518;10.870;2023-05-09T07:43:13;96702.41;;;15.34;67.57
32933;BME280;19444;50.518;10.870;2023-05-09T07:46:11;96695.03;;;16.13;63.49
32933;BME280;19444;50.518;10.870;2023-05-09T07:49:08;96683.78;;;16.11;61.42
32933;BME280;19444;50.518;10.870;2023-05-09T07:52:05;96689.94;;;15.87;65.40
32933;BME280;19444;50.518;10.870;2023-05-09T07:55:02;96690.59;;;15.72;63.65
32933;BME280;19444;50.518;10.870;2023-05-09T07:57:59;96681.97;;;15.45;65.44
32933;BME280;19444;50.518;10.870;2023-05-09T08:00:56;96672.63;;;16.12;63.71
32933;BME280;19444;50.518;10.870;2023-05-09T08:03:53;96669.91;;;16.12;61.20
32933;BME280;19444;50.518;10.870;2023-05-09T08:06:50;96674.72;;;16.43;58.14
32933;BME280;19444;50.518;10.870;2023-05-09T08:09:47;96658.63;;;17.15;57.54
32933;BME280;19444;50.518;10.870;2023-05-09T08:12:44;96648.31;;;18.12;54.38
32933;BME280;19444;50.518;10.870;2023-05-09T08:15:41;96654.28;;;17.70;54.99
32933;BME280;19444;50.518;10.870;2023-05-09T08:18:38;96652.53;;;18.64;53.67
32933;BME280;19444;50.518;10.870;2023-05-09T08:21:35;96639.16;;;19.75;49.61
32933;BME280;19444;50.518;10.870;2023-05-09T08:24:32;96628.09;;;20.66;48.50
32933;BME280;19444;50.518;10.870;2023-05-09T08:27:29;96633.63;;;19.68;49.83
32933;BME280;19444;50.518;10.870;2023-05-09T08:30:26;96626.75;;;20.27;43.86
32933;BME280;19444;50.518;10.870;2023-05-09T08:33:24;96616.22;;;19.99;48.71
32933;BME280;19444;50.518;10.870;2023-05-09T08:36:21;96631.53;;;19.84;47.41
32933;BME280;19444;50.518;10.870;2023-05-09T08:39:18;96599.19;;;20.88;44.13
32933;BME280;19444;50.518;10.870;2023-05-09T08:42:15;96602.81;;;21.33;44.97
32933;BME280;19444;50.518;10.870;2023-05-09T08:45:24;96605.22;;;21.05;43.37
32933;BME280;19444;50.518;10.870;2023-05-09T08:48:22;96600.38;;;22.17;44.07
32933;BME280;19444;50.518;10.870;2023-05-09T08:51:19;96593.63;;;22.65;43.15
32933;BME280;19444;50.518;10.870;2023-05-09T08:54:18;96591.25;;;22.57;42.17
32933;BME280;19444;50.518;10.870;2023-05-09T08:57:18;96580.50;;;21.65;44.81
32933;BME280;19444;50.518;10.870;2023-05-09T09:00:16;96574.13;;;22.01;42.61
32933;BME280;19444;50.518;10.870;2023-05-09T09:03:16;96580.50;;;22.16;46.55
32933;BME280;19444;50.518;10.870;2023-05-09T09:06:15;96571.22;;;23.54;38.49
32933;BME280;19444;50.518;10.870;2023-05-09T09:09:14;96568.47;;;24.04;38.88
32933;BME280;19444;50.518;10.870;2023-05-09T09:12:15;96560.13;;;24.64;36.84
32933;BME280;19444;50.518;10.870;2023-05-09T09:15:15;96566.06;;;22.95;42.61
32933;BME280;19444;50.518;10.870;2023-05-09T09:18:29;96562.03;;;22.71;41.83
32933;BME280;19444;50.518;10.870;2023-05-09T09:21:26;96551.31;;;23.78;38.82
32933;BME280;19444;50.518;10.870;2023-05-09T09:24:23;96546.97;;;24.09;40.50
32933;BME280;19444;50.518;10.870;2023-05-09T09:27:20;96553.59;;;23.05;38.55
32933;BME280;19444;50.518;10.870;2023-05-09T09:30:18;96551.09;;;22.64;48.20
32933;BME280;19444;50.518;10.870;2023-05-09T09:33:19;96543.88;;;23.97;45.24
32933;BME280;19444;50.518;10.870;2023-05-09T09:36:28;96527.75;;;25.18;36.35
32933;BME280;19444;50.518;10.870;2023-05-09T09:39:25;96518.81;;;25.59;34.79
32933;BME280;19444;50.518;10.870;2023-05-09T09:42:22;96527.00;;;24.16;39.36
32933;BME280;19444;50.518;10.870;2023-05-09T09:45:22;96524.34;;;23.80;39.29
32933;BME280;19444;50.518;10.870;2023-05-09T09:48:24;96517.09;;;25.31;38.99
32933;BME280;19444;50.518;10.870;2023-05-09T09:51:21;96503.22;;;25.52;35.75
32933;BME280;19444;50.518;10.870;2023-05-09T09:54:18;96495.16;;;25.28;36.99
32933;BME280;19444;50.518;10.870;2023-05-09T09:57:37;96509.88;;;24.92;43.51
32933;BME280;19444;50.518;10.870;2023-05-09T10:00:35;96513.81;;;22.17;41.30
32933;BME280;19444;50.518;10.870;2023-05-09T10:03:40;96488.72;;;24.96;39.16
32933;BME280;19444;50.518;10.870;2023-05-09T10:06:37;96478.69;;;25.76;41.72
32933;BME280;19444;50.518;10.870;2023-05-09T10:09:36;96471.66;;;25.75;38.95
32933;BME280;19444;50.518;10.870;2023-05-09T10:12:35;96466.06;;;26.20;39.04
32933;BME280;19444;50.518;10.870;2023-05-09T10:15:34;96483.34;;;25.38;38.41
32933;BME280;19444;50.518;10.870;2023-05-09T10:18:48;96478.22;;;26.56;35.09
32933;BME280;19444;50.518;10.870;2023-05-09T10:21:54;96480.88;;;26.63;42.87
32933;BME280;19444;50.518;10.870;2023-05-09T10:25:02;96474.72;;;26.18;36.83
32933;BME280;19444;50.518;10.870;2023-05-09T10:28:01;96478.44;;;27.23;38.15
32933;BME280;19444;50.518;10.870;2023-05-09T10:31:13;96469.81;;;26.02;37.44
32933;BME280;19444;50.518;10.870;2023-05-09T10:34:12;96478.09;;;25.54;42.31
32933;BME280;19444;50.518;10.870;2023-05-09T10:37:09;96456.56;;;24.34;39.32
32933;BME280;19444;50.518;10.870;2023-05-09T10:40:07;96447.44;;;25.18;38.09
32933;BME280;19444;50.518;10.870;2023-05-09T10:43:05;96449.63;;;24.82;38.70
32933;BME280;19444;50.518;10.870;2023-05-09T10:46:03;96438.97;;;26.22;39.44
32933;BME280;19444;50.518;10.870;2023-05-09T10:49:01;96414.88;;;27.17;34.02
32933;BME280;19444;50.518;10.870;2023-05-09T10:51:59;96411.16;;;27.04;34.93
32933;BME280;19444;50.518;10.870;2023-05-09T10:55:01;96399.09;;;27.21;35.21
32933;BME280;19444;50.518;10.870;2023-05-09T10:58:20;96411.47;;;26.83;35.68
32933;BME280;19444;50.518;10.870;2023-05-09T11:01:36;96409.50;;;25.54;33.58
32933;BME280;19444;50.518;10.870;2023-05-09T11:04:35;96389.31;;;27.64;37.68
32933;BME280;19444;50.518;10.870;2023-05-09T11:07:34;96393.31;;;26.62;34.18
32933;BME280;19444;50.518;10.870;2023-05-09T11:10:41;96391.25;;;24.88;32.98
32933;BME280;19444;50.518;10.870;2023-05-09T11:13:45;96376.63;;;25.88;36.29
32933;BME280;19444;50.518;10.870;2023-05-09T11:17:03;96375.50;;;25.82;39.60
32933;BME280;19444;50.518;10.870;2023-05-09T11:20:04;96364.31;;;26.57;37.80
32933;BME280;19444;50.518;10.870;2023-05-09T11:23:03;96347.03;;;27.94;31.39
32933;BME280;19444;50.518;10.870;2023-05-09T11:26:06;96354.94;;;28.12;34.37
32933;BME280;19444;50.518;10.870;2023-05-09T11:29:05;96344.97;;;26.64;30.81
32933;BME280;19444;50.518;10.870;2023-05-09T11:32:06;96352.13;;;25.70;33.55
32933;BME280;19444;50.518;10.870;2023-05-09T11:35:12;96333.72;;;27.49;42.23
32933;BME280;19444;50.518;10.870;2023-05-09T11:38:20;96321.69;;;27.19;31.11
32933;BME280;19444;50.518;10.870;2023-05-09T11:41:18;96316.13;;;27.23;31.02
32933;BME280;19444;50.518;10.870;2023-05-09T11:44:18;96332.41;;;25.41;32.01
32933;BME280;19444;50.518;10.870;2023-05-09T11:47:15;96312.50;;;26.29;33.05
32933;BME280;19444;50.518;10.870;2023-05-09T11:50:14;96309.69;;;26.05;31.54
32933;BME280;19444;50.518;10.870;2023-05-09T11:53:12;96300.66;;;26.05;31.89
32933;BME280;19444;50.518;10.870;2023-05-09T11:56:09;96284.81;;;27.37;42.40
32933;BME280;19444;50.518;10.870;2023-05-09T11:59:07;96284.53;;;27.51;40.08
32933;BME280;19444;50.518;10.870;2023-05-09T12:02:05;96288.94;;;26.82;30.28
32933;BME280;19444;50.518;10.870;2023-05-09T12:05:11;96287.06;;;27.42;29.07
32933;BME280;19444;50.518;10.870;2023-05-09T12:08:09;96277.19;;;27.64;30.82
32933;BME280;19444;50.518;10.870;2023-05-09T12:11:09;96274.44;;;27.64;31.23
32933;BME280;19444;50.518;10.870;2023-05-09T12:14:06;96271.97;;;26.63;30.82
32933;BME280;19444;50.518;10.870;2023-05-09T12:17:05;96273.66;;;27.64;28.63
32933;BME280;19444;50.518;10.870;2023-05-09T12:20:03;96255.66;;;27.59;30.82
32933;BME280;19444;50.518;10.870;2023-05-09T12:23:02;96268.31;;;27.37;38.18
32933;BME280;19444;50.518;10.870;2023-05-09T12:25:59;96259.91;;;27.84;28.05
32933;BME280;19444;50.518;10.870;2023-05-09T12:28:56;96266.88;;;25.81;34.24
32933;BME280;19444;50.518;10.870;2023-05-09T12:31:53;96259.13;;;26.80;32.55
32933;BME280;19444;50.518;10.870;2023-05-09T12:34:50;96244.44;;;27.30;34.90
32933;BME280;19444;50.518;10.870;2023-05-09T12:37:59;96233.94;;;26.82;29.44
32933;BME280;19444;50.518;10.870;2023-05-09T12:41:05;96247.91;;;28.10;29.73
32933;BME280;19444;50.518;10.870;2023-05-09T12:44:08;96234.66;;;26.12;30.62
32933;BME280;19444;50.518;10.870;2023-05-09T12:47:06;96244.09;;;26.38;32.36
32933;BME280;19444;50.518;10.870;2023-05-09T12:50:05;96230.13;;;26.76;38.24
32933;BME280;19444;50.518;10.870;2023-05-09T12:53:03;96237.63;;;25.67;33.87
32933;BME280;19444;50.518;10.870;2023-05-09T12:56:02;96216.81;;;26.24;28.79
32933;BME280;19444;50.518;10.870;2023-05-09T12:58:59;96226.41;;;26.12;28.29
32933;BME280;19444;50.518;10.870;2023-05-09T13:01:58;96219.28;;;30.49;36.34
32933;BME280;19444;50.518;10.870;2023-05-09T13:05:16;96213.88;;;29.27;28.00
32933;BME280;19444;50.518;10.870;2023-05-09T13:08:13;96203.44;;;28.44;25.22
32933;BME280;19444;50.518;10.870;2023-05-09T13:11:10;96207.91;;;30.34;29.79
32933;BME280;19444;50.518;10.870;2023-05-09T13:14:13;96214.06;;;28.91;28.04
32933;BME280;19444;50.518;10.870;2023-05-09T13:17:11;96195.66;;;26.91;25.58
32933;BME280;19444;50.518;10.870;2023-05-09T13:20:08;96205.19;;;25.28;27.61
32933;BME280;19444;50.518;10.870;2023-05-09T13:23:06;96192.41;;;26.76;27.70
32933;BME280;19444;50.518;10.870;2023-05-09T13:26:03;96189.47;;;27.66;25.89
32933;BME280;19444;50.518;10.870;2023-05-09T13:29:00;96174.63;;;27.60;26.80
32933;BME280;19444;50.518;10.870;2023-05-09T13:31:57;96167.69;;;26.06;34.83
32933;BME280;19444;50.518;10.870;2023-05-09T13:34:54;96182.78;;;27.84;29.25
32933;BME280;19444;50.518;10.870;2023-05-09T13:37:51;96154.19;;;27.41;25.92
32933;BME280;19444;50.518;10.870;2023-05-09T13:40:48;96138.41;;;26.66;34.35
32933;BME280;19444;50.518;10.870;2023-05-09T13:43:45;96152.81;;;26.50;29.16
32933;BME280;19444;50.518;10.870;2023-05-09T13:46:42;96143.75;;;28.67;23.88
32933;BME280;19444;50.518;10.870;2023-05-09T13:49:39;96138.06;;;26.41;26.11
32933;BME280;19444;50.518;10.870;2023-05-09T13:52:36;96140.72;;;26.87;26.28
32933;BME280;19444;50.518;10.870;2023-05-09T13:55:33;96153.09;;;26.79;29.85
32933;BME280;19444;50.518;10.870;2023-05-09T13:58:30;96138.97;;;27.73;28.37
32933;BME280;19444;50.518;10.870;2023-05-09T14:01:28;96125.50;;;27.59;26.57
32933;BME280;19444;50.518;10.870;2023-05-09T14:04:26;96128.72;;;28.55;24.94
32933;BME280;19444;50.518;10.870;2023-05-09T14:07:23;96116.88;;;28.09;26.52
32933;BME280;19444;50.518;10.870;2023-05-09T14:10:20;96110.94;;;27.94;24.96
32933;BME280;19444;50.518;10.870;2023-05-09T14:13:17;96111.97;;;26.05;28.83
32933;BME280;19444;50.518;10.870;2023-05-09T14:16:14;96103.38;;;26.70;32.91
32933;BME280;19444;50.518;10.870;2023-05-09T14:19:12;96106.47;;;28.00;25.83
32933;BME280;19444;50.518;10.870;2023-05-09T14:22:10;96097.25;;;28.52;24.92
32933;BME280;19444;50.518;10.870;2023-05-09T14:25:08;96096.88;;;29.63;33.14
32933;BME280;19444;50.518;10.870;2023-05-09T14:28:05;96097.56;;;26.21;24.88
32933;BME280;19444;50.518;10.870;2023-05-09T14:31:05;96091.66;;;26.66;27.22
32933;BME280;19444;50.518;10.870;2023-05-09T14:34:02;96090.94;;;27.02;26.85
32933;BME280;19444;50.518;10.870;2023-05-09T14:37:01;96091.59;;;26.70;24.83
32933;BME280;19444;50.518;10.870;2023-05-09T14:39:58;96083.16;;;25.67;22.66
32933;BME280;19444;50.518;10.870;2023-05-09T14:43:01;96075.38;;;26.95;33.83
32933;BME280;19444;50.518;10.870;2023-05-09T14:45:58;96097.72;;;24.38;24.78
32933;BME280;19444;50.518;10.870;2023-05-09T14:48:55;96072.94;;;25.17;24.19
32933;BME280;19444;50.518;10.870;2023-05-09T14:51:57;96064.25;;;27.38;24.33
32933;BME280;19444;50.518;10.870;2023-05-09T14:54:54;96068.22;;;25.44;33.17
32933;BME280;19444;50.518;10.870;2023-05-09T14:57:51;96073.38;;;24.47;25.69
32933;BME280;19444;50.518;10.870;2023-05-09T15:00:49;96068.25;;;24.49;28.12
32933;BME280;19444;50.518;10.870;2023-05-09T15:03:46;96051.41;;;25.42;25.52
32933;BME280;19444;50.518;10.870;2023-05-09T15:06:44;96036.47;;;25.70;25.61
32933;BME280;19444;50.518;10.870;2023-05-09T15:09:41;96047.41;;;25.97;23.86
32933;BME280;19444;50.518;10.870;2023-05-09T15:12:38;96039.56;;;25.72;30.97
32933;BME280;19444;50.518;10.870;2023-05-09T15:15:36;96041.09;;;24.62;25.76
32933;BME280;19444;50.518;10.870;2023-05-09T15:18:36;96033.00;;;25.39;28.48
32933;BME280;19444;50.518;10.870;2023-05-09T15:21:32;96028.78;;;25.58;29.23
32933;BME280;19444;50.518;10.870;2023-05-09T15:24:30;96029.69;;;24.29;24.71
32933;BME280;19444;50.518;10.870;2023-05-09T15:27:27;96008.03;;;26.24;24.43
32933;BME280;19444;50.518;10.870;2023-05-09T15:30:24;96010.19;;;26.16;22.55
32933;BME280;19444;50.518;10.870;2023-05-09T15:33:21;96004.31;;;27.62;34.55
32933;BME280;19444;50.518;10.870;2023-05-09T15:36:18;95994.69;;;26.65;22.87
32933;BME280;19444;50.518;10.870;2023-05-09T15:39:16;95988.22;;;26.56;21.83